Airport ICAO


00:46 UTC

0°C

Clear skies


An affordable passengers' Moving Map for your aircraft. Made for the iPad and the iPhone
More information here

LFPO Orly


Paris FRANCE   VFR CAVOK


METAR LFPO 230030Z 04012KT CAVOK M00/M06 Q1017 NOSIG 0h16min

TAF LFPO 222300Z 2300/2406 03008KT CAVOK TEMPO 2312/2318 03010G20KT 1h46min





NOTAMS

OPEN